Aviation Digital Data Service (ADDS)

Output produced by METARs form (1933 UTC 28 March 2017)
found at http://www.aviationweather.gov/adds/metars/
 
KBFD 281908Z AUTO 34008KT 10SM BKN010 OVC015 11/09 A2990 RMK AO2 T01110094 TSNO $
KBFD 281853Z AUTO 34006KT 10SM BKN008 OVC014 11/10 A2990 RMK AO2 SLP129 T01110100 TSNO $
KBFD 281753Z AUTO 36007KT 10SM OVC006 11/10 A2989 RMK AO2 RAE1654 SLP126 P0000 60007 T01110100 10117 20083 55003 TSNO
KBFD 281653Z AUTO 36005KT 10SM -RA OVC007 11/11 A2989 RMK AO2 SLP125 P0000 T01110106 TSNO
KBFD 281553Z AUTO 36005KT 10SM -RA OVC007 11/10 A2990 RMK AO2 RAE24B40 SLP126 P0000 T01060100 TSNO
KBFD 281538Z AUTO 01004KT 10SM OVC005 11/10 A2990 RMK AO2 RAE24 P0000 T01060100 TSNO
KBFD 281453Z AUTO 35005KT 8SM -RA OVC003 10/10 A2990 RMK AO2 SLP129 P0001 60007 T01000100 53005 TSNO
KBFD 281444Z AUTO 36005KT 8SM -RA BKN003 BKN037 OVC060 10/10 A2990 RMK AO2 P0001 T01000100 TSNO
KBFD 281353Z AUTO 34004KT 6SM -RA BR FEW003 OVC036 09/09 A2990 RMK AO2 SLP127 P0003 T00940094 TSNO
KBFD 281303Z AUTO 32003KT 3SM -RA BR FEW034 FEW043 OVC070 09/09 A2989 RMK AO2 P0000 T00890089 TSNO
KBFD 281253Z AUTO 32004KT 2 1/2SM -RA BR OVC070 09/09 A2989 RMK AO2 SLP122 P0003 T00890089 TSNO
KBFD 281153Z AUTO 00000KT 5SM -RA BR OVC070 08/08 A2988 RMK AO2 SLP118 P0005 60007 70007 T00830083 10083 20056 53006 TSNO
KBFD 281053Z AUTO 00000KT 6SM -RA BR FEW030 BKN047 OVC055 08/08 A2987 RMK AO2 SLP112 P0002 T00830083 TSNO
KBFD 280953Z AUTO 00000KT 8SM -RA BKN055 OVC080 08/08 A2985 RMK AO2 RAB43 SLP108 P0000 T00780078 TSNO
KBFD 280935Z AUTO 00000KT 8SM SCT029 SCT065 OVC080 07/07 A2985 RMK AO2 T00720072 TSNO
KBFD 280906Z AUTO 12003KT 10SM BKN029 OVC065 07/07 A2986 RMK AO2 T00720067 TSNO
KBFD 280853Z AUTO 00000KT 10SM FEW031 BKN065 OVC080 07/07 A2986 RMK AO2 SLP110 60000 T00720072 56013 TSNO
KBFD 280753Z AUTO 00000KT 10SM FEW031 SCT075 OVC085 08/08 A2987 RMK AO2 RAB22E31 SLP113 P0000 T00780078 TSNO
KBFD 280653Z AUTO 00000KT 10SM OVC075 07/07 A2988 RMK AO2 SLP118 T00670067 TSNO
KBFD 280553Z AUTO 00000KT 6SM BR BKN037 06/06 A2990 RMK AO2 SLP126 T00610061 10133 20056 58008 TSNO
KBFD 280543Z AUTO 00000KT 3SM BR BKN035 06/06 A2990 RMK AO2 T00560056 TSNO
KBFD 280541Z AUTO 15003KT 1 3/4SM BR BKN035 06/06 A2990 RMK AO2 T00560056 TSNO
KBFD 280529Z AUTO 00000KT 3/4SM BR FEW002 BKN035 06/06 A2990 RMK AO2 T00560056 TSNO
KBFD 280520Z AUTO 00000KT 1SM BR FEW002 BKN035 06/06 A2990 RMK AO2 T00610061 TSNO
KBFD 280503Z AUTO 00000KT 1/2SM FG SCT002 BKN037 06/06 A2991 RMK AO2 T00560056 TSNO
KBFD 280453Z AUTO 00000KT 1/4SM FG SCT002 BKN038 06/06 A2991 RMK AO2 SLP131 T00610061 401500050 TSNO
KBFD 280445Z AUTO 00000KT 1/4SM FG FEW002 SCT040 07/07 A2991 RMK AO2 T00670067 TSNO
KBFD 280435Z AUTO 00000KT 1/2SM FG CLR 07/07 A2992 RMK AO2 T00670067 TSNO
KBFD 280428Z AUTO 00000KT 1/4SM FG CLR 07/07 A2992 RMK AO2 T00720072 TSNO
KBFD 280419Z AUTO 00000KT 1 3/4SM BR CLR 07/07 A2992 RMK AO2 VIS 1/2V5 T00720072 TSNO
KBFD 280353Z AUTO 00000KT 8SM CLR 08/07 A2992 RMK AO2 SLP133 T00780072 TSNO
KBFD 280253Z AUTO 00000KT 10SM SCT041 08/07 A2993 RMK AO2 SLP137 T00780067 50003 TSNO
KBFD 280153Z AUTO 00000KT 10SM FEW034 SCT046 09/08 A2993 RMK AO2 SLP138 T00940078 TSNO
KBFD 280053Z AUTO 00000KT 10SM BKN050 11/08 A2992 RMK AO2 SLP136 T01110083 TSNO
KBFD 272353Z AUTO 00000KT 10SM OVC050 13/08 A2992 RMK AO2 SLP132 T01280078 10150 20128 53001 TSNO
KBFD 272253Z AUTO 22003KT 10SM FEW037 OVC049 14/08 A2991 RMK AO2 SLP131 T01440078 TSNO
KBFD 272153Z AUTO 23007KT 10SM OVC050 15/07 A2991 RMK AO2 SLP128 T01500072 TSNO
KBFD 272053Z AUTO 24006KT 10SM SCT032 SCT039 BKN055 15/08 A2991 RMK AO2 SLP129 T01500083 58011 TSNO
KBFD 271953Z AUTO 27007KT 10SM BKN050 OVC060 14/08 A2993 RMK AO2 SLP135 T01440083 TSNO
KBFD 271925Z AUTO 26005KT 10SM SCT029 SCT041 OVC055 14/08 A2993 RMK AO2 T01390083 TSNO
KBFD 271907Z AUTO VRB04KT 10SM BKN027 BKN035 OVC070 14/08 A2993 RMK AO2 T01390083 TSNO
KBFD 271853Z AUTO 26007G15KT 220V280 10SM SCT030 SCT036 BKN065 14/08 A2993 RMK AO2 SLP138 T01440083 TSNO
KBFD 271753Z AUTO VRB05KT 10SM FEW027 BKN041 OVC060 13/09 A2995 RMK AO2 SLP143 T01330094 10133 20061 58002 TSNO
KBFD 271723Z AUTO 23008KT 210V280 10SM FEW018 BKN034 OVC042 13/09 A2994 RMK AO2 T01280094 TSNO
KBFD 271708Z AUTO 24008KT 10SM SCT015 BKN020 OVC042 13/09 A2994 RMK AO2 T01280094 TSNO
KBFD 271653Z AUTO VRB06KT 10SM BKN013 BKN017 OVC025 12/10 A2995 RMK AO2 SLP144 T01220100 TSNO
KBFD 271621Z AUTO 24005KT 10SM BKN011 BKN018 OVC024 12/10 A2996 RMK AO2 T01170100 TSNO
KBFD 271553Z AUTO 21008KT 10SM BKN007 OVC023 11/11 A2996 RMK AO2 CIG 004V013 SLP149 T01110106 TSNO
KBFD 271518Z AUTO 22005KT 8SM OVC003 10/09 A2996 RMK AO2 CIG 002V007 T01000094 TSNO
KBFD 271500Z AUTO 23006KT 5SM BR OVC002 09/09 A2996 RMK AO2 T00940094 TSNO
KBFD 271453Z AUTO VRB05KT 2 1/2SM BR OVC002 09/09 A2995 RMK AO2 VIS 1 1/2V4 SLP149 T00890089 55001 TSNO
KBFD 271443Z AUTO 20007KT 1 1/2SM BR OVC002 09/09 A2995 RMK AO2 T00890089 TSNO
KBFD 271405Z AUTO VRB06KT 1/2SM FG OVC002 08/08 A2995 RMK AO2 T00830083 TSNO
KBFD 271353Z AUTO VRB06KT 1 1/2SM BR OVC002 08/08 A2994 RMK AO2 SLP147 T00830083 TSNO
KBFD 271343Z AUTO VRB04KT 3SM BR OVC002 08/08 A2994 RMK AO2 T00830083 TSNO
KBFD 271321Z AUTO 19008KT 1 1/2SM BR OVC002 08/08 A2994 RMK AO2 T00780078 TSNO
KBFD 271311Z AUTO 17005KT 2SM BR OVC002 07/07 A2995 RMK AO2 T00720072 TSNO
KBFD 271253Z AUTO 16003KT 6SM BR OVC003 07/07 A2995 RMK AO2 SLP149 T00670067 TSNO
KBFD 271153Z AUTO 17004KT 6SM BR OVC003 06/06 A2996 RMK AO2 RAB1055E40 SLP153 P0001 60018 70022 T00610061 10061 20050 53008 TSNO
KBFD 271145Z AUTO 15005KT 4SM BR OVC003 06/06 A2995 RMK AO2 RAB1055E40 P0001 T00610056 TSNO
KBFD 271127Z AUTO 00000KT 2 1/2SM -RA BR OVC003 06/06 A2996 RMK AO2 RAB1055 P0001 T00560056 TSNO
KBFD 271053Z AUTO 17004KT 7SM OVC004 06/06 A2994 RMK AO2 SLP147 T00560056 TSNO
KBFD 271048Z AUTO 15005KT 9SM OVC004 06/06 A2994 RMK AO2 TSNO
KBFD 270953Z AUTO 16008KT 10SM OVC006 06/05 A2993 RMK AO2 RAB03E11 SLP144 P0000 T00560050 TSNO
KBFD 270853Z AUTO 15008KT 10SM OVC006 06/05 A2994 RMK AO2 RAE36 SLP144 P0001 60017 T00560050 58009 TSNO
KBFD 270753Z AUTO 15006KT 8SM -RA OVC007 05/05 A2995 RMK AO2 SLP149 P0011 T00500050 TSNO